首页
METAR-TAF:

METAR-TAF

机场 :

巴林国际机场

巴林, 巴林

纬度: 26-16N, 经度: 050-39E, 海拔: 2米

当前天气观测

该预报发布于29分钟前的14:00 UTC
风速24节,风向西北
温度 16°C
湿度 68%
气压 1022 hPa
能见度10公里或以上
散云层高于4000英尺

METAR: OBBI 261400Z 31024KT 9999 SCT040 16/10 Q1022 NOSIG

时间: 17:29 (14:29 UTC)

预报

该预报发布于3小时和29分钟前的11:00 UTC
预报有效从26日的 12点(UTC)到 27日的 18点(UTC)
风速20节,风向西北,有时为30节阵风
能见度10公里或以上
散云层高于2000英尺
成为
从 27日的 08点(UTC)到 27日的 10点(UTC)
风速18节,风向西北

TAF: OBBI 261100Z 2612/2718 31020G30KT 9999 SCT020 BECMG 2708/2710 32018KT

超过4000个机场的气象观测和天气预报(METAR&TAF报告)。

可查询的气象台以黄色和红色小点在地图上表示。

将鼠标移到小点上方,可查看气象台名称。

然后点击查看天气观测和预报。

如需切换地图:点击带黑十字的绿色按钮放大地图;点击带横线的绿色按钮缩小地图;或者点击绿色箭头查看邻近地区的地图。


METAR-TAF: